Time;durP1;ratioP1;P1;durP2;ratioP2;P2;SDS_P1;SDS_P2;PMS_P1;PMS_P2;Temp;Humidity;BMP_temperature;BMP_pressure;BME280_temperature;BME280_humidity;BME280_pressure;Samples;Min_cycle;Max_cycle;Signal;HPM_P1;HPM_P2
2022/07/21 00:01:29;;;;;;;11.80;10.63;;;;;;;32.90;45.59;100567.13;4199618;28;20100;-67
2022/07/21 00:03:31;;;;;;;12.15;9.93;;;;;;;32.76;45.67;100547.81;4199782;28;20048;-70
2022/07/21 00:05:35;;;;;;;12.15;10.75;;;;;;;32.88;45.79;100561.00;4198611;28;20037;-68
2022/07/21 00:07:36;;;;;;;11.07;9.85;;;;;;;32.89;45.72;100569.13;4199924;28;20438;-68
2022/07/21 00:09:44;;;;;;;13.15;10.73;;;;;;;32.87;45.63;100560.19;4200306;28;20089;-68
2022/07/21 00:11:48;;;;;;;12.48;11.27;;;;;;;32.87;45.53;100557.34;4215293;28;20040;-59
2022/07/21 00:13:52;;;;;;;11.70;10.55;;;;;;;32.91;45.70;100562.31;4215357;28;20044;-59
2022/07/21 00:16:00;;;;;;;12.63;10.85;;;;;;;32.90;45.77;100558.63;4216181;28;20040;-58
2022/07/21 00:18:02;;;;;;;11.82;10.57;;;;;;;32.91;45.77;100567.97;4216072;28;20044;-59
2022/07/21 00:20:07;;;;;;;12.57;11.30;;;;;;;32.90;45.71;100567.13;4215991;28;20048;-58
2022/07/21 00:22:09;;;;;;;11.60;10.40;;;;;;;32.89;45.58;100571.94;4216195;28;20090;-59
2022/07/21 00:24:10;;;;;;;14.10;10.73;;;;;;;32.89;45.70;100566.28;4216239;28;20544;-58
2022/07/21 00:26:11;;;;;;;11.95;10.45;;;;;;;32.90;45.88;100567.13;4216058;28;20113;-58
2022/07/21 00:28:12;;;;;;;10.98;9.88;;;;;;;32.59;45.69;100537.72;4216274;28;20040;-58
2022/07/21 00:30:16;;;;;;;12.25;10.68;;;;;;;32.89;45.92;100583.28;4215968;28;20421;-58
2022/07/21 00:32:18;;;;;;;11.60;9.80;;;;;;;32.89;45.71;100594.63;4216227;28;20036;-59
2022/07/21 00:34:19;;;;;;;11.57;10.13;;;;;;;32.89;45.79;100590.97;4216156;28;20040;-59
2022/07/21 00:36:21;;;;;;;11.85;10.65;;;;;;;32.88;45.62;100593.00;4215307;28;20426;-59
2022/07/21 00:38:25;;;;;;;11.38;10.10;;;;;;;32.89;45.88;100588.13;4215654;28;20109;-59
2022/07/21 00:40:27;;;;;;;11.43;10.27;;;;;;;32.77;45.87;100574.94;4214705;28;20097;-58
2022/07/21 00:42:30;;;;;;;11.80;10.60;;;;;;;32.89;45.90;100588.97;4215593;28;20320;-59
2022/07/21 00:44:32;;;;;;;11.73;10.52;;;;;;;32.89;45.90;100600.28;4216021;28;20044;-58
2022/07/21 00:46:33;;;;;;;11.18;10.10;;;;;;;32.88;45.92;100593.00;4215084;28;20472;-59
2022/07/21 00:48:35;;;;;;;11.63;10.43;;;;;;;32.82;45.91;100594.50;4215710;28;20097;-58
2022/07/21 00:50:36;;;;;;;12.10;10.90;;;;;;;32.89;45.88;100593.81;4215566;28;20093;-58
2022/07/21 00:52:38;;;;;;;11.27;10.07;;;;;;;32.88;45.68;100604.31;4215621;28;20472;-58
2022/07/21 00:54:39;;;;;;;11.02;9.80;;;;;;;32.81;45.76;100590.03;4215385;28;20533;-59
2022/07/21 00:56:41;;;;;;;11.25;10.20;;;;;;;32.88;45.89;100593.00;4214351;28;20032;-59
2022/07/21 00:58:42;;;;;;;11.63;10.52;;;;;;;32.84;45.87;100596.94;4215521;28;20101;-59
2022/07/21 01:00:44;;;;;;;11.32;10.23;;;;;;;32.88;45.89;100595.81;4215501;28;20459;-59
2022/07/21 01:02:51;;;;;;;11.32;10.23;;;;;;;32.88;46.06;100595.81;4215545;28;20430;-59
2022/07/21 01:04:53;;;;;;;11.20;10.10;;;;;;;32.88;45.82;100600.69;4215707;28;20081;-58
2022/07/21 01:06:55;;;;;;;11.43;10.32;;;;;;;32.88;45.95;100604.31;4215511;28;20089;-58
2022/07/21 01:08:58;;;;;;;10.27;9.27;;;;;;;32.80;45.78;100591.19;4215608;28;20093;-59
2022/07/21 01:11:00;;;;;;;11.98;10.38;;;;;;;32.88;45.89;100607.16;4215063;28;20074;-58
2022/07/21 01:13:04;;;;;;;11.52;10.32;;;;;;;32.87;45.92;100607.53;4215526;28;20097;-59
2022/07/21 01:15:08;;;;;;;11.45;10.35;;;;;;;32.83;45.82;100603.81;4215383;28;20097;-59
2022/07/21 01:17:09;;;;;;;12.18;10.98;;;;;;;32.88;45.73;100604.31;4213732;28;20036;-59
2022/07/21 01:19:11;;;;;;;12.02;10.75;;;;;;;32.87;45.83;100608.38;4215040;28;20028;-59
2022/07/21 01:21:32;;;;;;;10.70;9.60;;;;;;;32.85;45.89;100605.09;4215518;28;20099;-59
2022/07/21 01:23:33;;;;;;;11.40;10.20;;;;;;;32.88;45.98;100618.50;4215011;28;20483;-58
2022/07/21 01:25:35;;;;;;;11.02;9.85;;;;;;;32.79;45.86;100594.41;4215200;28;20040;-59
2022/07/21 01:27:42;;;;;;;11.63;10.18;;;;;;;32.78;45.94;100593.59;4214778;28;20044;-59
2022/07/21 01:29:43;;;;;;;10.60;9.60;;;;;;;32.87;45.96;100608.38;4214588;28;20039;-59
2022/07/21 01:31:48;;;;;;;11.20;10.00;;;;;;;32.87;45.91;100611.19;4215294;28;20536;-59
2022/07/21 01:33:51;;;;;;;11.02;9.93;;;;;;;32.86;45.99;100609.56;4215260;28;20032;-58
2022/07/21 01:35:52;;;;;;;10.75;9.65;;;;;;;32.87;45.85;100604.72;4214824;28;20097;-58
2022/07/21 01:37:54;;;;;;;11.95;10.70;;;;;;;32.87;45.91;100616.88;4214736;28;20048;-58
2022/07/21 01:42:24;;;;;;;14.20;9.90;;;;;;;32.87;46.11;100625.38;4215438;28;20093;-58
2022/07/21 01:44:25;;;;;;;11.38;10.27;;;;;;;32.88;46.15;100634.69;4214583;28;20040;-59
2022/07/21 01:46:28;;;;;;;11.02;9.93;;;;;;;32.86;45.90;100629.41;4215013;28;20024;-58
2022/07/21 01:48:29;;;;;;;11.52;9.77;;;;;;;32.88;46.06;100626.19;4213511;28;20039;-59
2022/07/21 01:50:31;;;;;;;11.52;10.38;;;;;;;32.86;46.02;100629.41;4214652;28;20370;-59
2022/07/21 01:52:41;;;;;;;11.43;10.25;;;;;;;32.85;46.13;100622.09;4214938;28;20089;-59
2022/07/21 01:57:03;;;;;;;11.23;10.13;;;;;;;32.87;46.05;100630.22;4213468;28;20039;-59
2022/07/21 01:59:05;;;;;;;10.90;9.80;;;;;;;32.83;45.97;100624.47;4213929;28;20032;-59
2022/07/21 02:01:07;;;;;;;10.80;9.80;;;;;;;32.87;45.98;100636.69;4213578;28;20357;-59
2022/07/21 02:03:08;;;;;;;12.00;10.00;;;;;;;32.86;46.09;100637.91;4214251;28;20036;-58
2022/07/21 02:05:10;;;;;;;11.88;9.95;;;;;;;32.86;46.13;100634.25;4214412;28;20044;-58
2022/07/21 02:07:18;;;;;;;11.68;10.38;;;;;;;32.85;45.99;100630.59;4214497;28;20541;-58
2022/07/21 02:09:46;;;;;;;10.48;9.48;;;;;;;32.61;46.15;100603.31;4213956;28;20032;-59
2022/07/21 02:11:55;;;;;;;10.88;9.77;;;;;;;32.85;45.89;100627.75;4211445;28;20089;-59
2022/07/21 02:13:56;;;;;;;11.57;10.52;;;;;;;32.84;46.24;100620.44;4214469;28;20108;-58
2022/07/21 02:15:58;;;;;;;11.40;10.30;;;;;;;32.80;46.09;100607.38;4214177;28;20040;-58
2022/07/21 02:18:00;;;;;;;11.85;10.35;;;;;;;32.86;45.99;100629.41;4214513;28;20040;-60
2022/07/21 02:20:01;;;;;;;10.70;9.70;;;;;;;32.86;46.17;100629.41;4214089;28;20039;-60
2022/07/21 02:22:05;;;;;;;10.35;9.35;;;;;;;32.82;46.05;100617.16;4214096;28;20440;-60
2022/07/21 02:24:07;;;;;;;10.18;9.18;;;;;;;32.84;46.14;100613.94;4214390;28;20105;-59
2022/07/21 02:26:08;;;;;;;9.68;8.70;;;;;;;32.85;46.09;100605.09;4214393;28;20475;-60
2022/07/21 02:28:10;;;;;;;10.75;9.75;;;;;;;32.85;46.23;100610.75;4213968;28;20093;-59
2022/07/21 02:30:13;;;;;;;10.27;9.38;;;;;;;32.85;46.02;100610.75;4214452;28;20104;-60
2022/07/21 02:32:14;;;;;;;10.82;9.73;;;;;;;32.85;46.14;100605.09;4214403;28;20105;-60
2022/07/21 02:34:18;;;;;;;10.45;9.45;;;;;;;32.85;46.06;100605.09;4214447;28;20401;-59
2022/07/21 02:36:20;;;;;;;10.73;9.73;;;;;;;32.85;46.22;100599.44;4214323;28;20093;-59
2022/07/21 02:38:21;;;;;;;11.43;10.30;;;;;;;32.84;45.97;100609.09;4213908;28;20040;-60
2022/07/21 02:40:23;;;;;;;11.00;9.90;;;;;;;32.84;46.06;100603.44;4213078;28;20168;-58
2022/07/21 02:42:24;;;;;;;11.27;10.18;;;;;;;32.83;46.08;100604.63;4214249;28;20426;-59
2022/07/21 02:44:25;;;;;;;10.30;9.25;;;;;;;32.85;46.34;100601.41;4214342;28;20032;-59
2022/07/21 02:46:27;;;;;;;10.07;9.07;;;;;;;32.84;46.17;100599.78;4213804;28;20073;-59
2022/07/21 02:48:28;;;;;;;10.40;9.40;;;;;;;32.84;46.28;100592.09;4213913;28;20044;-59
2022/07/21 02:50:32;;;;;;;11.07;9.98;;;;;;;32.81;46.29;100587.19;4213883;28;20082;-58
2022/07/21 02:52:33;;;;;;;11.27;9.77;;;;;;;32.85;46.27;100587.25;4213926;28;20092;-58
2022/07/21 02:54:34;;;;;;;10.75;9.65;;;;;;;32.84;46.24;100589.25;4213787;28;20655;-58
2022/07/21 02:56:36;;;;;;;10.52;9.52;;;;;;;32.84;45.97;100594.94;4213801;28;20040;-60
2022/07/21 03:01:51;;;;;;;11.82;10.40;;;;;;;32.81;46.23;100584.34;4196487;28;20039;-60
2022/07/21 03:03:55;;;;;;;11.38;10.20;;;;;;;32.84;46.08;100580.75;4215442;28;20040;-58
2022/07/21 03:05:58;;;;;;;11.00;9.90;;;;;;;32.86;46.09;100583.25;4216285;28;20035;-60
2022/07/21 03:07:59;;;;;;;10.98;9.73;;;;;;;32.80;46.22;100571.34;4217542;28;20434;-59
2022/07/21 03:10:01;;;;;;;10.70;9.63;;;;;;;32.85;46.33;100571.09;4217266;28;20488;-60
2022/07/21 03:12:02;;;;;;;10.27;9.27;;;;;;;32.82;46.02;100569.00;4215705;28;20036;-60
2022/07/21 03:14:03;;;;;;;9.75;8.85;;;;;;;32.84;46.34;100558.09;4217120;28;20086;-59
2022/07/21 03:16:08;;;;;;;10.40;9.48;;;;;;;32.84;46.48;100557.28;4217029;28;20040;-60
2022/07/21 03:18:09;;;;;;;10.38;9.27;;;;;;;32.84;46.21;100558.09;4217196;28;20093;-59
2022/07/21 03:20:13;;;;;;;10.32;9.32;;;;;;;32.83;46.42;100564.94;4216655;28;20074;-59
2022/07/21 03:22:17;;;;;;;10.02;9.02;;;;;;;32.83;46.30;100556.44;4217097;28;20070;-59
2022/07/21 03:24:21;;;;;;;10.88;9.88;;;;;;;32.83;46.25;100562.13;4217021;28;20101;-60
2022/07/21 03:26:22;;;;;;;10.63;9.63;;;;;;;32.83;46.15;100562.13;4217281;28;20036;-59
2022/07/21 03:28:26;;;;;;;10.52;9.43;;;;;;;32.84;46.36;100560.09;4217509;28;20093;-60
2022/07/21 03:30:28;;;;;;;10.23;9.23;;;;;;;32.84;46.16;100560.91;4216942;28;20036;-60
2022/07/21 03:32:30;;;;;;;10.65;9.65;;;;;;;32.84;46.26;100558.09;4216849;28;20043;-60
2022/07/21 03:34:31;;;;;;;10.48;9.38;;;;;;;32.83;46.23;100555.63;4217109;28;20090;-60
2022/07/21 03:36:32;;;;;;;10.43;9.43;;;;;;;32.82;46.17;100560.47;4217085;28;20101;-60
2022/07/21 03:38:34;;;;;;;10.02;9.02;;;;;;;32.81;46.38;100558.84;4216746;28;20445;-60
2022/07/21 03:40:38;;;;;;;10.48;9.18;;;;;;;32.80;46.39;100560.03;4216693;28;20036;-60
2022/07/21 03:42:39;;;;;;;9.50;8.60;;;;;;;32.83;45.98;100562.13;4216777;28;20040;-60
2022/07/21 03:44:40;;;;;;;9.50;8.70;;;;;;;32.81;46.30;100552.38;4216977;28;20040;-59
2022/07/21 03:46:44;;;;;;;10.15;9.25;;;;;;;32.75;46.15;100548.97;4216817;28;20052;-59
2022/07/21 03:48:48;;;;;;;9.98;8.93;;;;;;;32.82;46.42;100554.81;4216245;28;20097;-60
2022/07/21 03:50:50;;;;;;;10.48;9.38;;;;;;;32.82;46.26;100556.84;4216627;28;20032;-60
2022/07/21 03:52:51;;;;;;;10.20;9.20;;;;;;;32.83;46.47;100558.47;4216698;28;20036;-59
2022/07/21 03:55:07;;;;;;;9.13;8.32;;;;;;;32.83;46.15;100570.63;4216418;28;20070;-59
2022/07/21 03:57:11;;;;;;;9.93;9.02;;;;;;;32.82;46.21;100560.47;4216873;28;20137;-60
2022/07/21 03:59:13;;;;;;;9.88;8.90;;;;;;;32.83;46.16;100564.13;4216429;28;20044;-60
2022/07/21 04:01:14;;;;;;;10.65;9.63;;;;;;;32.82;46.40;100557.66;4216572;28;20101;-59
2022/07/21 04:03:15;;;;;;;11.68;9.07;;;;;;;32.82;46.23;100554.00;4216623;28;20036;-60
2022/07/21 04:05:18;;;;;;;10.70;9.60;;;;;;;32.81;46.22;100547.50;4216614;28;20057;-59
2022/07/21 04:07:19;;;;;;;10.68;9.60;;;;;;;32.82;46.37;100542.66;4216416;28;20097;-59
2022/07/21 04:09:31;;;;;;;10.52;9.52;;;;;;;32.76;46.44;100539.31;4216094;28;20036;-60
2022/07/21 04:11:32;;;;;;;10.07;9.00;;;;;;;32.80;46.45;100533.69;4215515;28;20044;-60
2022/07/21 04:13:33;;;;;;;10.60;9.48;;;;;;;32.80;46.49;100533.69;4216531;28;20036;-60
2022/07/21 04:15:36;;;;;;;11.00;9.73;;;;;;;32.79;46.44;100532.88;4216195;28;20048;-59
2022/07/21 04:17:38;;;;;;;9.80;8.80;;;;;;;32.80;46.32;100533.69;4215312;28;20109;-60
2022/07/21 04:19:39;;;;;;;9.88;8.98;;;;;;;32.80;46.45;100533.69;4215340;28;20040;-59
2022/07/21 04:21:43;;;;;;;10.38;9.38;;;;;;;32.74;46.47;100523.88;4216207;28;20105;-59
2022/07/21 04:23:44;;;;;;;9.38;8.48;;;;;;;32.77;46.26;100535.28;4216159;28;20094;-59
2022/07/21 04:25:46;;;;;;;10.13;9.13;;;;;;;32.79;46.29;100538.56;4216146;28;20105;-60
2022/07/21 04:27:48;;;;;;;9.43;8.52;;;;;;;32.80;46.36;100533.69;4216279;28;20101;-60
2022/07/21 04:29:50;;;;;;;10.43;9.45;;;;;;;32.79;46.24;100535.72;4215947;28;20540;-60
2022/07/21 04:31:51;;;;;;;11.13;10.02;;;;;;;32.79;46.44;100526.41;4215996;28;20040;-59
2022/07/21 04:33:53;;;;;;;10.30;9.23;;;;;;;32.79;46.43;100524.38;4216260;28;20052;-60
2022/07/21 04:35:57;;;;;;;10.20;9.23;;;;;;;32.79;46.58;100520.72;4215834;28;20093;-59
2022/07/21 04:37:58;;;;;;;9.85;8.90;;;;;;;32.78;46.43;100514.25;4215978;28;20048;-59
2022/07/21 04:40:00;;;;;;;9.80;8.90;;;;;;;32.78;46.30;100514.25;4215415;28;20036;-60
2022/07/21 04:42:01;;;;;;;9.88;8.88;;;;;;;32.78;46.57;100508.59;4216198;28;20105;-60
2022/07/21 04:44:03;;;;;;;10.70;9.68;;;;;;;32.79;46.24;100520.72;4215693;28;20086;-60
2022/07/21 04:46:04;;;;;;;9.93;9.02;;;;;;;32.77;46.51;100518.28;4215679;28;20040;-60
2022/07/21 04:48:06;;;;;;;9.77;8.85;;;;;;;32.77;46.29;100511.81;4215767;28;20036;-60
2022/07/21 04:50:08;;;;;;;10.55;9.15;;;;;;;32.78;46.45;100519.09;4215642;28;20048;-60
2022/07/21 04:52:10;;;;;;;9.55;8.65;;;;;;;32.74;46.16;100507.69;4216061;28;20368;-59
2022/07/21 04:54:17;;;;;;;10.00;9.10;;;;;;;32.77;46.32;100511.81;4216014;28;20149;-60
2022/07/21 04:56:18;;;;;;;9.77;8.85;;;;;;;32.77;46.18;100506.94;4215934;28;20433;-60
2022/07/21 04:58:19;;;;;;;10.10;9.13;;;;;;;32.76;46.28;100499.66;4214514;28;20032;-59
2022/07/21 05:00:26;;;;;;;9.57;8.68;;;;;;;32.77;46.22;100491.97;4215511;28;20040;-60
2022/07/21 05:02:27;;;;;;;9.70;8.82;;;;;;;32.77;46.35;100489.13;4214875;28;20032;-60
2022/07/21 05:04:28;;;;;;;10.00;9.05;;;;;;;32.74;46.19;100485.03;4215823;28;20044;-60
2022/07/21 05:06:30;;;;;;;9.45;8.55;;;;;;;32.76;46.18;100479.81;4215461;28;20040;-60
2022/07/21 05:08:31;;;;;;;10.50;9.50;;;;;;;32.76;46.55;100485.47;4214419;28;20120;-60
2022/07/21 05:10:33;;;;;;;9.63;8.68;;;;;;;32.75;46.31;100486.66;4214941;28;20044;-60
2022/07/21 05:12:34;;;;;;;9.93;9.02;;;;;;;32.75;46.43;100480.97;4216039;28;20651;-60
2022/07/21 05:14:35;;;;;;;9.82;8.65;;;;;;;32.76;46.38;100484.63;4215249;28;20070;-60
2022/07/21 05:16:37;;;;;;;9.23;8.32;;;;;;;32.76;46.34;100487.47;4215237;28;20441;-60
2022/07/21 05:18:38;;;;;;;11.18;9.75;;;;;;;32.74;46.27;100490.69;4215356;28;20036;-60
2022/07/21 05:20:42;;;;;;;10.25;9.25;;;;;;;32.72;46.46;100478.91;4215733;28;20040;-60
2022/07/21 05:22:43;;;;;;;9.48;8.57;;;;;;;32.75;46.46;100480.16;4215464;28;20048;-60
2022/07/21 05:24:47;;;;;;;10.00;9.00;;;;;;;32.75;46.43;100480.16;4215119;28;20093;-59
2022/07/21 05:26:49;;;;;;;10.35;9.40;;;;;;;32.73;46.21;100474.06;4215506;28;20036;-60
2022/07/21 05:28:50;;;;;;;10.00;9.10;;;;;;;32.75;46.35;100475.31;4215213;28;20040;-60
2022/07/21 05:30:54;;;;;;;9.30;8.40;;;;;;;32.75;46.34;100475.31;4215017;28;20065;-59
2022/07/21 05:32:56;;;;;;;9.73;8.82;;;;;;;32.75;46.65;100475.31;4215058;28;20089;-59
2022/07/21 05:35:00;;;;;;;9.65;8.73;;;;;;;32.76;46.33;100470.47;4215232;28;20467;-59
2022/07/21 05:37:01;;;;;;;9.27;8.48;;;;;;;32.73;46.23;100466.38;4214999;28;20040;-60
2022/07/21 05:39:03;;;;;;;10.73;9.70;;;;;;;32.72;46.54;100464.75;4214855;28;20032;-60
2022/07/21 05:41:07;;;;;;;9.73;8.82;;;;;;;32.74;46.67;100468.03;4215381;28;20475;-59
2022/07/21 05:43:09;;;;;;;10.15;9.25;;;;;;;32.74;46.46;100470.84;4215555;28;20036;-59
2022/07/21 05:45:11;;;;;;;9.02;8.15;;;;;;;32.75;46.43;100460.34;4214854;28;20181;-59
2022/07/21 05:47:13;;;;;;;9.55;8.65;;;;;;;32.74;46.30;100451.00;4214876;28;20066;-59
2022/07/21 05:49:14;;;;;;;10.05;8.80;;;;;;;32.74;46.41;100445.34;4214805;28;20394;-59
2022/07/21 05:51:15;;;;;;;9.98;9.07;;;;;;;32.74;46.47;100447.38;4215048;28;20032;-59
2022/07/21 05:53:16;;;;;;;9.35;8.45;;;;;;;32.73;46.61;100452.22;4215093;28;20039;-59
2022/07/21 05:55:18;;;;;;;9.85;8.95;;;;;;;32.73;46.34;100445.72;4214831;28;20040;-59
2022/07/21 05:57:19;;;;;;;9.57;8.68;;;;;;;32.73;46.59;100446.56;4214626;28;20112;-59
2022/07/21 05:59:23;;;;;;;10.10;9.10;;;;;;;32.72;46.54;100447.75;4214726;28;20533;-59
2022/07/21 06:01:25;;;;;;;10.20;9.15;;;;;;;32.72;46.69;100436.41;4214522;28;20364;-59
2022/07/21 06:03:26;;;;;;;10.43;9.43;;;;;;;32.72;46.51;100447.75;4214718;28;20449;-59
2022/07/21 06:05:36;;;;;;;10.75;9.75;;;;;;;32.72;46.61;100447.75;4214594;28;20040;-59
2022/07/21 06:07:41;;;;;;;10.05;9.05;;;;;;;32.73;46.70;100448.56;4214467;28;20425;-59
2022/07/21 06:09:43;;;;;;;9.57;8.70;;;;;;;32.71;46.73;100443.25;4214426;28;20430;-59
2022/07/21 06:11:44;;;;;;;9.48;8.57;;;;;;;32.71;46.69;100437.59;4214862;28;20089;-59
2022/07/21 06:13:46;;;;;;;10.35;9.35;;;;;;;32.71;46.77;100434.75;4214420;28;20549;-59
2022/07/21 06:15:47;;;;;;;9.90;8.90;;;;;;;32.71;46.94;100431.91;4214449;28;20097;-59
2022/07/21 06:17:48;;;;;;;9.57;8.68;;;;;;;32.71;46.62;100439.59;4214885;28;20105;-59
2022/07/21 06:19:50;;;;;;;9.75;8.75;;;;;;;32.62;46.67;100420.00;4213909;28;20040;-59
2022/07/21 06:21:54;;;;;;;9.70;8.73;;;;;;;32.71;46.69;100436.78;4214644;28;20090;-59
2022/07/21 06:23:58;;;;;;;9.75;8.85;;;;;;;32.71;46.72;100428.28;4214272;28;20822;-59
2022/07/21 06:25:59;;;;;;;10.45;9.35;;;;;;;32.68;46.62;100435.53;4214182;28;20437;-59
2022/07/21 06:28:01;;;;;;;9.98;9.05;;;;;;;32.71;46.49;100443.25;4214364;28;20039;-59
2022/07/21 06:30:05;;;;;;;10.45;9.43;;;;;;;32.70;46.72;100443.63;4214378;28;20089;-59
2022/07/21 06:32:07;;;;;;;10.32;9.32;;;;;;;32.71;46.65;100445.28;4214483;28;20101;-59
2022/07/21 06:34:14;;;;;;;9.85;8.85;;;;;;;32.69;46.84;100436.34;4213806;28;20437;-59
2022/07/21 06:36:21;;;;;;;9.35;8.45;;;;;;;32.69;46.72;100442.81;4208634;28;20121;-59
2022/07/21 06:38:25;;;;;;;10.00;9.00;;;;;;;32.69;46.93;100442.81;4214086;28;20036;-59
2022/07/21 06:40:27;;;;;;;9.35;8.52;;;;;;;32.69;46.77;100440.00;4213796;28;20089;-59
2022/07/21 06:42:28;;;;;;;10.52;9.52;;;;;;;32.69;46.77;100440.00;4214589;28;20024;-59
2022/07/21 06:44:29;;;;;;;10.35;9.35;;;;;;;32.69;46.78;100431.50;4214291;28;20089;-59
2022/07/21 06:46:31;;;;;;;10.60;9.50;;;;;;;32.68;46.96;100435.53;4213956;28;20078;-59
2022/07/21 06:48:32;;;;;;;10.00;9.00;;;;;;;32.69;47.01;100436.34;4213295;28;20040;-59
2022/07/21 06:50:34;;;;;;;9.20;8.40;;;;;;;32.68;46.76;100440.38;4214087;28;20106;-59
2022/07/21 06:52:38;;;;;;;10.50;9.10;;;;;;;32.67;46.97;100433.91;4214065;28;20119;-59
2022/07/21 06:54:40;;;;;;;10.18;9.27;;;;;;;32.67;47.05;100428.22;4214300;28;20089;-59
2022/07/21 06:56:41;;;;;;;9.68;8.77;;;;;;;32.67;46.80;100431.06;4214215;28;20101;-60
2022/07/21 06:58:42;;;;;;;9.50;8.60;;;;;;;32.67;47.13;100428.22;4213938;28;20124;-59
2022/07/21 07:00:46;;;;;;;9.77;8.88;;;;;;;32.67;47.00;100427.38;4213940;28;20044;-58
2022/07/21 07:02:47;;;;;;;9.63;8.70;;;;;;;32.67;46.84;100428.22;4213768;28;20482;-59
2022/07/21 07:04:48;;;;;;;9.65;8.73;;;;;;;32.66;46.97;100420.91;4214183;28;20097;-59
2022/07/21 07:06:51;;;;;;;8.95;8.05;;;;;;;32.67;46.81;100410.38;4213920;28;20461;-59
2022/07/21 07:08:56;;;;;;;9.13;8.23;;;;;;;32.66;47.10;100409.56;4213894;28;20449;-59
2022/07/21 07:11:00;;;;;;;9.30;8.50;;;;;;;32.36;46.64;100373.34;4213879;28;20440;-59
2022/07/21 07:13:01;;;;;;;9.80;8.90;;;;;;;32.68;46.73;100417.72;4213880;28;20078;-59
2022/07/21 07:15:08;;;;;;;9.90;8.90;;;;;;;32.68;46.92;100407.19;4214127;28;20028;-59
2022/07/21 07:17:13;;;;;;;9.82;8.90;;;;;;;32.68;46.64;100401.53;4214309;28;20081;-59
2022/07/21 07:19:17;;;;;;;9.93;8.98;;;;;;;32.63;46.88;100393.34;4213473;28;20039;-59
2022/07/21 07:21:18;;;;;;;9.75;8.85;;;;;;;32.67;46.82;100408.41;4214254;28;20471;-59
2022/07/21 07:23:19;;;;;;;10.10;9.10;;;;;;;32.68;46.71;100401.53;4214113;28;20040;-59
2022/07/21 07:25:21;;;;;;;10.45;9.45;;;;;;;32.60;46.62;100382.75;4213800;28;20044;-59
2022/07/21 07:27:22;;;;;;;9.93;9.02;;;;;;;32.68;47.05;100398.69;4214021;28;20048;-59
2022/07/21 07:29:23;;;;;;;10.13;9.13;;;;;;;32.67;47.04;100399.91;4213522;28;20040;-59
2022/07/21 07:31:25;;;;;;;9.98;9.07;;;;;;;32.66;46.92;100398.22;4212601;28;20470;-59
2022/07/21 07:33:27;;;;;;;10.02;9.13;;;;;;;32.67;46.77;100405.56;4212467;28;20461;-59
2022/07/21 07:35:28;;;;;;;10.00;9.00;;;;;;;32.65;47.04;100390.94;4213906;28;20032;-59
2022/07/21 07:37:29;;;;;;;9.30;8.40;;;;;;;32.57;46.88;100383.50;4214021;28;20126;-59
2022/07/21 07:39:31;;;;;;;9.48;8.48;;;;;;;32.66;47.00;100392.56;4213346;28;20040;-59
2022/07/21 07:41:35;;;;;;;10.02;9.15;;;;;;;32.64;47.15;100383.63;4213621;28;20429;-59
2022/07/21 07:43:36;;;;;;;10.23;9.23;;;;;;;32.66;47.05;100389.75;4213602;28;20097;-59
2022/07/21 07:45:53;;;;;;;9.57;8.60;;;;;;;32.67;47.07;100393.38;4213963;28;20036;-59
2022/07/21 07:47:54;;;;;;;9.95;9.02;;;;;;;32.66;47.06;100389.75;4216965;28;20036;-59
2022/07/21 07:49:56;;;;;;;10.45;9.48;;;;;;;32.64;46.98;100384.47;4216413;28;20491;-59
2022/07/21 07:52:02;;;;;;;9.85;8.85;;;;;;;32.66;47.12;100378.41;4216937;28;20036;-59
2022/07/21 07:54:04;;;;;;;9.32;8.52;;;;;;;32.66;47.00;100381.25;4216389;28;20089;-59
2022/07/21 07:56:05;;;;;;;9.52;8.63;;;;;;;32.65;46.83;100379.59;4216793;28;20036;-59
2022/07/21 07:58:07;;;;;;;9.70;8.80;;;;;;;32.64;47.06;100377.97;4216568;28;20094;-59
2022/07/21 08:00:14;;;;;;;9.30;8.40;;;;;;;32.64;46.87;100369.47;4216597;28;20089;-59
2022/07/21 08:02:24;;;;;;;8.95;8.15;;;;;;;32.65;46.87;100362.59;4216404;28;20093;-59
2022/07/21 08:04:25;;;;;;;8.95;8.15;;;;;;;32.65;47.14;100371.09;4216520;28;20040;-59
2022/07/21 08:06:29;;;;;;;9.63;8.68;;;;;;;32.53;47.19;100351.44;4216289;28;20040;-59
2022/07/21 08:08:31;;;;;;;9.40;8.55;;;;;;;32.65;47.08;100368.28;4215319;28;20098;-59
2022/07/21 08:10:32;;;;;;;10.00;9.00;;;;;;;32.60;47.19;100352.41;4216292;28;20048;-59
2022/07/21 08:12:35;;;;;;;9.30;8.40;;;;;;;32.65;47.24;100356.94;4216275;28;20040;-59
2022/07/21 08:14:37;;;;;;;9.10;8.13;;;;;;;32.63;47.24;100359.34;4216248;28;20100;-59
2022/07/21 08:16:38;;;;;;;9.30;8.40;;;;;;;32.63;47.06;100350.84;4216424;28;20031;-59
2022/07/21 08:18:39;;;;;;;9.40;8.50;;;;;;;32.63;47.14;100345.19;4215991;28;20036;-59
2022/07/21 08:20:41;;;;;;;9.70;8.80;;;;;;;32.61;47.29;100344.72;4216535;28;20105;-59
2022/07/21 08:22:42;;;;;;;8.50;7.80;;;;;;;32.56;47.22;100325.22;4216811;28;20077;-59
2022/07/21 08:24:43;;;;;;;9.07;8.18;;;;;;;32.61;47.34;100333.38;4216476;28;20069;-59
2022/07/21 08:26:45;;;;;;;8.68;7.88;;;;;;;32.58;47.19;100339.84;4216149;28;20036;-60
2022/07/21 08:28:49;;;;;;;9.93;9.00;;;;;;;32.60;47.33;100349.56;4215748;28;20528;-59
2022/07/21 08:30:53;;;;;;;10.10;9.20;;;;;;;32.62;47.28;100346.34;4216046;28;20036;-60
2022/07/21 08:32:54;;;;;;;;;;;;;;;32.60;47.17;100340.25;4216897;28;20028;-59
2022/07/21 08:34:56;;;;;;;9.73;8.55;;;;;;;32.66;47.23;100338.75;4216265;28;19963;-59
2022/07/21 08:37:00;;;;;;;9.38;8.48;;;;;;;32.57;47.23;100315.50;4215894;28;20039;-59
2022/07/21 08:39:01;;;;;;;;;;;;;;;32.62;47.09;100335.03;4216364;28;20040;-59
2022/07/21 08:41:04;;;;;;;9.23;8.40;;;;;;;32.67;46.87;100337.56;4216372;28;19912;-60
2022/07/21 08:43:08;;;;;;;8.45;7.65;;;;;;;32.66;47.19;100326.59;4216266;28;20040;-59
2022/07/21 08:45:09;;;;;;;9.07;8.18;;;;;;;32.65;47.26;100334.28;4215775;28;20086;-59
2022/07/21 08:47:11;;;;;;;9.48;8.40;;;;;;;32.64;46.93;100338.31;4215881;28;20105;-59
2022/07/21 08:49:19;;;;;;;9.25;8.45;;;;;;;32.61;47.03;100339.88;4214760;28;20044;-59
2022/07/21 08:51:25;;;;;;;9.10;8.20;;;;;;;32.62;47.29;100329.34;4215362;28;20039;-59
2022/07/21 08:53:29;;;;;;;9.38;8.48;;;;;;;32.61;47.17;100330.56;4215672;28;20032;-59
2022/07/21 08:55:32;;;;;;;8.45;7.75;;;;;;;32.55;47.26;100324.41;4215803;28;20036;-59
2022/07/21 08:57:40;;;;;;;8.93;8.13;;;;;;;32.62;47.23;100335.03;4214986;28;20035;-59
2022/07/21 08:59:44;;;;;;;8.70;7.90;;;;;;;32.61;47.29;100339.06;4215470;28;20036;-59
2022/07/21 09:01:45;;;;;;;8.95;8.10;;;;;;;32.61;47.48;100324.91;4215606;28;20065;-59
2022/07/21 09:03:47;;;;;;;8.90;8.00;;;;;;;32.59;47.17;100324.47;4215692;28;20052;-59
2022/07/21 09:06:11;;;;;;;9.50;8.50;;;;;;;32.58;47.04;100328.50;4215480;28;20047;-59
2022/07/21 09:08:12;;;;;;;9.75;8.85;;;;;;;32.60;47.17;100334.59;4215882;28;20489;-59
2022/07/21 09:10:23;;;;;;;9.15;8.25;;;;;;;32.17;47.43;100268.63;4215377;28;20611;-59
2022/07/21 09:12:25;;;;;;;8.35;7.55;;;;;;;32.59;47.21;100321.63;4215926;28;20040;-59
2022/07/21 09:14:30;;;;;;;9.23;8.32;;;;;;;32.59;47.16;100315.97;4215824;28;20024;-59
2022/07/21 09:16:41;;;;;;;;;;;;;;;32.57;47.36;100318.34;4215615;28;20101;-59
2022/07/21 09:18:51;;;;;;;8.98;8.18;;;;;;;32.62;47.25;100329.34;4215550;28;19912;-59
2022/07/21 09:20:54;;;;;;;9.05;8.15;;;;;;;32.58;47.21;100325.66;4215496;28;20419;-59
2022/07/21 09:23:13;;;;;;;9.18;8.25;;;;;;;32.60;47.33;100337.44;4215231;28;20036;-59
2022/07/21 09:25:33;;;;;;;9.98;8.18;;;;;;;32.59;47.23;100335.78;4215012;28;20044;-59
2022/07/21 09:27:34;;;;;;;8.82;7.90;;;;;;;32.60;47.06;100332.56;4215311;28;20040;-59
2022/07/21 09:29:40;;;;;;;9.98;8.65;;;;;;;32.59;47.30;100330.13;4215110;28;20073;-59
2022/07/21 09:31:41;;;;;;;9.40;8.48;;;;;;;32.58;47.57;100334.16;4215322;28;20528;-59
2022/07/21 09:33:45;;;;;;;8.90;8.00;;;;;;;32.50;47.28;100326.72;4215058;28;20441;-59
2022/07/21 09:35:53;;;;;;;9.20;8.30;;;;;;;32.55;47.40;100347.06;4214774;28;20044;-59